Time,TemperatureF,DewpointF,PressureIn,WindDirection,WindDirectionDegrees,WindSpeedMPH,WindSpeedGustMPH,Humidity,HourlyPrecipIn,Conditions,Clouds,dailyrainin,SolarRadiationWatts/m^2,SoftwareType,DateUTC
2013-01-31 00:21:00,13.0,6.0,-100.00,NNW,337,1.0,4.0,73,0.00,,,0.00,18.000000,,2013-01-31 00:21:00,
2013-01-31 00:32:00,13.0,6.0,-100.00,NNW,337,1.0,4.0,73,0.00,,,0.00,18.000000,,2013-01-31 00:32:00,
2013-01-31 00:42:00,13.0,6.0,-100.00,NNW,337,1.0,4.0,73,0.00,,,0.00,18.000000,,2013-01-31 00:42:00,
2013-01-31 00:52:00,13.0,6.0,-100.00,NNW,337,1.0,4.0,73,0.00,,,0.00,18.000000,,2013-01-31 00:52:00,
2013-01-31 01:21:00,11.0,6.0,-100.00,East,86,1.0,4.0,78,0.00,,,0.00,8.000000,,2013-01-31 01:21:00,
2013-01-31 02:21:00,11.0,6.0,-100.00,NNE,13,1.0,3.0,80,-99.99,,,0.00,0.000000,,2013-01-31 02:21:00,
2013-01-31 02:32:00,11.0,6.0,-100.00,NNE,13,1.0,3.0,80,-99.99,,,0.00,0.000000,,2013-01-31 02:32:00,
2013-01-31 02:41:00,11.0,6.0,-100.00,NNE,13,1.0,3.0,80,-99.99,,,0.00,0.000000,,2013-01-31 02:41:00,
2013-01-31 02:52:00,11.0,6.0,-100.00,NNE,13,1.0,3.0,80,-99.99,,,0.00,0.000000,,2013-01-31 02:52:00,
2013-01-31 03:21:00,11.0,6.0,-100.00,WSW,245,0.0,3.0,80,0.00,,,0.00,0.000000,,2013-01-31 03:21:00,
2013-01-31 04:22:00,13.0,9.0,-100.00,WNW,283,0.0,2.0,82,-99.99,,,0.00,0.000000,,2013-01-31 04:22:00,
2013-01-31 04:31:00,13.0,9.0,-100.00,WNW,283,0.0,2.0,82,-99.99,,,0.00,0.000000,,2013-01-31 04:31:00,
2013-01-31 04:41:00,13.0,9.0,-100.00,WNW,283,0.0,2.0,82,-99.99,,,0.00,0.000000,,2013-01-31 04:41:00,
2013-01-31 04:51:00,13.0,9.0,-100.00,WNW,283,0.0,2.0,82,-99.99,,,0.00,0.000000,,2013-01-31 04:51:00,
2013-01-31 05:22:00,14.0,10.0,-100.00,East,83,0.0,2.0,83,0.00,,,0.00,0.000000,,2013-01-31 05:22:00,
2013-01-31 05:31:00,14.0,10.0,-100.00,East,83,0.0,2.0,83,0.00,,,0.00,0.000000,,2013-01-31 05:31:00,
2013-01-31 05:41:00,14.0,10.0,-100.00,East,83,0.0,2.0,83,0.00,,,0.00,0.000000,,2013-01-31 05:41:00,
2013-01-31 05:51:00,14.0,10.0,-100.00,East,83,0.0,2.0,83,0.00,,,0.00,0.000000,,2013-01-31 05:51:00,
2013-01-31 14:22:00,20.0,17.0,-100.00,NNW,330,1.0,2.0,87,0.00,,,0.00,0.000000,,2013-01-31 14:22:00,
2013-01-31 14:31:00,20.0,17.0,-100.00,NNW,330,1.0,2.0,87,0.00,,,0.00,0.000000,,2013-01-31 14:31:00,
2013-01-31 14:42:00,20.0,17.0,-100.00,NNW,330,1.0,2.0,87,0.00,,,0.00,0.000000,,2013-01-31 14:42:00,
2013-01-31 14:52:00,20.0,17.0,-100.00,NNW,330,1.0,2.0,87,0.00,,,0.00,0.000000,,2013-01-31 14:52:00,
2013-01-31 15:22:00,21.0,18.0,-100.00,WNW,291,0.0,3.0,87,0.00,,,0.00,0.000000,,2013-01-31 15:22:00,
2013-01-31 15:32:00,21.0,18.0,-100.00,WNW,291,0.0,3.0,87,0.00,,,0.00,0.000000,,2013-01-31 15:32:00,
2013-01-31 15:42:00,21.0,18.0,-100.00,WNW,291,0.0,3.0,87,0.00,,,0.00,0.000000,,2013-01-31 15:42:00,
2013-01-31 15:51:00,21.0,18.0,-100.00,WNW,291,0.0,3.0,87,0.00,,,0.00,0.000000,,2013-01-31 15:51:00,
2013-01-31 16:21:00,21.0,18.0,-100.00,NNE,23,0.0,3.0,87,0.00,,,0.00,0.000000,,2013-01-31 16:21:00,
2013-01-31 16:32:00,21.0,18.0,-100.00,NNE,23,0.0,3.0,87,0.00,,,0.00,0.000000,,2013-01-31 16:32:00,
2013-01-31 16:41:00,21.0,18.0,-100.00,NNE,23,0.0,3.0,87,0.00,,,0.00,0.000000,,2013-01-31 16:41:00,
2013-01-31 16:51:00,21.0,18.0,-100.00,NNE,23,0.0,3.0,87,0.00,,,0.00,0.000000,,2013-01-31 16:51:00,
2013-01-31 17:22:00,21.0,18.0,-100.00,West,276,0.0,2.0,87,0.00,,,0.00,0.000000,,2013-01-31 17:22:00,
2013-01-31 17:32:00,21.0,18.0,-100.00,West,276,0.0,2.0,87,0.00,,,0.00,0.000000,,2013-01-31 17:32:00,
2013-01-31 17:43:00,21.0,18.0,-100.00,West,276,0.0,2.0,87,0.00,,,0.00,0.000000,,2013-01-31 17:43:00,
2013-01-31 17:53:00,21.0,18.0,-100.00,West,276,0.0,2.0,87,0.00,,,0.00,0.000000,,2013-01-31 17:53:00,
2013-01-31 18:21:00,20.0,17.0,-100.00,WNW,284,0.0,1.0,88,0.00,,,-99.99,0.000000,,2013-01-31 18:21:00,
2013-01-31 18:32:00,20.0,17.0,-100.00,WNW,284,0.0,1.0,88,0.00,,,-99.99,0.000000,,2013-01-31 18:32:00,
2013-01-31 18:42:00,20.0,17.0,-100.00,WNW,284,0.0,1.0,88,0.00,,,-99.99,0.000000,,2013-01-31 18:42:00,
2013-01-31 18:52:00,20.0,17.0,-100.00,WNW,284,0.0,1.0,88,0.00,,,-99.99,0.000000,,2013-01-31 18:52:00,
2013-01-31 19:21:00,21.0,17.0,-100.00,South,188,0.0,2.0,86,0.00,,,0.00,0.000000,,2013-01-31 19:21:00,
2013-01-31 19:32:00,21.0,17.0,-100.00,South,188,0.0,2.0,86,0.00,,,0.00,0.000000,,2013-01-31 19:32:00,
2013-01-31 19:42:00,21.0,17.0,-100.00,South,188,0.0,2.0,86,0.00,,,0.00,0.000000,,2013-01-31 19:42:00,
2013-01-31 19:51:00,21.0,17.0,-100.00,South,188,0.0,2.0,86,0.00,,,0.00,0.000000,,2013-01-31 19:51:00,
2013-01-31 20:21:00,22.0,18.0,-100.00,NNE,15,1.0,4.0,85,0.00,,,0.00,4.000000,,2013-01-31 20:21:00,
2013-01-31 20:31:00,22.0,18.0,-100.00,NNE,15,1.0,4.0,85,0.00,,,0.00,4.000000,,2013-01-31 20:31:00,
2013-01-31 20:42:00,22.0,18.0,-100.00,NNE,15,1.0,4.0,85,0.00,,,0.00,4.000000,,2013-01-31 20:42:00,
2013-01-31 20:52:00,22.0,18.0,-100.00,NNE,15,1.0,4.0,85,0.00,,,0.00,4.000000,,2013-01-31 20:52:00,
2013-01-31 21:21:00,22.0,18.0,-100.00,West,264,2.0,4.0,83,0.00,,,0.00,7.000000,,2013-01-31 21:21:00,
2013-01-31 21:31:00,22.0,18.0,-100.00,West,264,2.0,4.0,83,0.00,,,0.00,7.000000,,2013-01-31 21:31:00,
2013-01-31 21:42:00,22.0,18.0,-100.00,West,264,2.0,4.0,83,0.00,,,0.00,7.000000,,2013-01-31 21:42:00,
2013-01-31 21:52:00,22.0,18.0,-100.00,West,264,2.0,4.0,83,0.00,,,0.00,7.000000,,2013-01-31 21:52:00,
2013-01-31 22:22:00,22.0,16.0,-100.00,WNW,284,1.0,5.0,79,0.00,,,0.00,11.000000,,2013-01-31 22:22:00,
2013-01-31 22:32:00,22.0,16.0,-100.00,WNW,284,1.0,5.0,79,0.00,,,0.00,11.000000,,2013-01-31 22:32:00,
2013-01-31 22:42:00,22.0,16.0,-100.00,WNW,284,1.0,5.0,79,0.00,,,0.00,11.000000,,2013-01-31 22:42:00,
2013-01-31 22:51:00,22.0,16.0,-100.00,WNW,284,1.0,5.0,79,0.00,,,0.00,11.000000,,2013-01-31 22:51:00,
2013-01-31 23:21:00,21.0,16.0,-100.00,NNW,330,1.0,4.0,81,0.00,,,0.00,7.000000,,2013-01-31 23:21:00,
2013-01-31 23:31:00,21.0,16.0,-100.00,NNW,330,1.0,4.0,81,0.00,,,0.00,7.000000,,2013-01-31 23:31:00,
2013-01-31 23:41:00,21.0,16.0,-100.00,NNW,330,1.0,4.0,81,0.00,,,0.00,7.000000,,2013-01-31 23:41:00,
2013-01-31 23:52:00,21.0,16.0,-100.00,NNW,330,1.0,4.0,81,0.00,,,0.00,7.000000,,2013-01-31 23:52:00,